Time;durP1;ratioP1;P1;durP2;ratioP2;P2;SDS_P1;SDS_P2;PMS_P1;PMS_P2;Temp;Humidity;BMP_temperature;BMP_pressure;BME280_temperature;BME280_humidity;BME280_pressure;Samples;Min_cycle;Max_cycle;Signal;HPM_P1;HPM_P2
2023/05/07 00:02:27;;;;;;;18.30;13.80;;;8.40;99.90;;;;;;5205434;28;20194;-50
2023/05/07 00:04:58;;;;;;;22.97;13.37;;;8.40;99.90;;;;;;5204355;28;20184;-51
2023/05/07 00:07:28;;;;;;;20.20;11.97;;;8.40;99.90;;;;;;5203768;28;20280;-51
2023/05/07 00:09:59;;;;;;;19.53;12.90;;;8.40;99.90;;;;;;5204196;28;20218;-53
2023/05/07 00:12:36;;;;;;;18.10;13.23;;;8.50;99.90;;;;;;5200201;28;20602;-52
2023/05/07 00:15:07;;;;;;;16.63;12.73;;;8.40;99.90;;;;;;5199390;28;20206;-54
2023/05/07 00:17:38;;;;;;;22.07;12.50;;;8.40;99.90;;;;;;5206024;28;20446;-50
2023/05/07 00:20:09;;;;;;;21.13;13.80;;;8.40;99.90;;;;;;5205646;28;20514;-50
2023/05/07 00:22:39;;;;;;;16.00;12.57;;;8.40;99.90;;;;;;5206221;28;20177;-50
2023/05/07 00:25:10;;;;;;;13.07;11.57;;;8.40;99.90;;;;;;5197463;28;20449;-52
2023/05/07 00:27:41;;;;;;;20.80;12.90;;;8.40;99.90;;;;;;5202231;28;20285;-54
2023/05/07 00:30:12;;;;;;;16.30;12.20;;;8.40;99.90;;;;;;5196455;28;20218;-53
2023/05/07 00:32:45;;;;;;;15.40;11.87;;;8.40;99.90;;;;;;5204635;28;20206;-50
2023/05/07 00:35:15;;;;;;;21.67;12.50;;;8.40;99.90;;;;;;5201038;28;20470;-51
2023/05/07 00:37:46;;;;;;;17.57;12.00;;;8.40;99.90;;;;;;5194896;28;20773;-50
2023/05/07 00:40:17;;;;;;;17.47;12.90;;;8.40;99.90;;;;;;5200689;28;20605;-51
2023/05/07 00:42:48;;;;;;;18.43;11.70;;;8.30;99.90;;;;;;5230090;28;20322;-53
2023/05/07 00:45:19;;;;;;;18.33;12.33;;;8.30;99.90;;;;;;5187540;28;20184;-50
2023/05/07 00:47:50;;;;;;;14.00;12.47;;;8.30;99.90;;;;;;5199987;28;20450;-52
2023/05/07 00:50:20;;;;;;;17.57;13.10;;;8.30;99.90;;;;;;5199140;28;20297;-51
2023/05/07 00:52:51;;;;;;;20.83;13.07;;;8.30;99.90;;;;;;5200569;28;20181;-52
2023/05/07 00:55:23;;;;;;;17.30;12.20;;;8.30;99.90;;;;;;5195320;28;20687;-53
2023/05/07 00:57:54;;;;;;;12.57;11.37;;;8.30;99.90;;;;;;5201541;28;20187;-51
2023/05/07 01:00:25;;;;;;;16.90;11.63;;;8.30;99.90;;;;;;5200968;28;20455;-51
2023/05/07 01:02:55;;;;;;;17.47;12.00;;;8.30;99.90;;;;;;5202912;28;20176;-50
2023/05/07 01:05:27;;;;;;;19.70;13.10;;;8.30;99.90;;;;;;5202013;28;20430;-49
2023/05/07 01:07:58;;;;;;;14.67;12.97;;;8.30;99.90;;;;;;5200721;28;20195;-51
2023/05/07 01:10:30;;;;;;;18.77;12.70;;;8.30;99.90;;;;;;5195380;28;20536;-52
2023/05/07 01:13:01;;;;;;;18.20;13.07;;;8.30;99.90;;;;;;5200891;28;21152;-51
2023/05/07 01:15:32;;;;;;;15.77;12.37;;;8.40;99.90;;;;;;5204764;28;20485;-50
2023/05/07 01:18:02;;;;;;;18.73;12.00;;;8.30;99.90;;;;;;5205375;28;20499;-51
2023/05/07 01:20:33;;;;;;;20.70;12.37;;;8.30;99.90;;;;;;5202842;28;20206;-51
2023/05/07 01:23:05;;;;;;;16.73;12.50;;;8.30;99.90;;;;;;5207176;28;20502;-50
2023/05/07 01:25:36;;;;;;;17.00;11.27;;;8.30;99.90;;;;;;5203286;28;20684;-53
2023/05/07 01:28:06;;;;;;;14.80;12.30;;;8.30;99.90;;;;;;5206999;28;20440;-51
2023/05/07 01:30:40;;;;;;;14.80;12.13;;;8.30;99.90;;;;;;5206024;28;20671;-50
2023/05/07 01:33:15;;;;;;;15.10;12.33;;;8.30;99.90;;;;;;5239068;28;20550;-53
2023/05/07 01:35:50;;;;;;;14.80;12.63;;;8.30;99.90;;;;;;5209881;28;20437;-51
2023/05/07 01:38:24;;;;;;;16.43;11.73;;;8.30;99.90;;;;;;5205656;28;20441;-52
2023/05/07 01:40:55;;;;;;;15.80;11.60;;;8.30;99.90;;;;;;5240060;28;20454;-49
2023/05/07 01:43:26;;;;;;;15.63;11.77;;;8.30;99.90;;;;;;5207041;28;20452;-52
2023/05/07 01:45:58;;;;;;;15.50;11.43;;;8.30;99.90;;;;;;5202881;28;20969;-50
2023/05/07 01:48:29;;;;;;;15.23;11.03;;;8.30;99.90;;;;;;5204317;28;20438;-53
2023/05/07 01:51:01;;;;;;;16.87;11.40;;;8.30;99.90;;;;;;5206429;28;20452;-51
2023/05/07 01:53:43;;;;;;;16.30;11.27;;;8.30;99.90;;;;;;5187863;28;20466;-52
2023/05/07 01:56:14;;;;;;;13.70;11.27;;;8.30;99.90;;;;;;5235752;28;20437;-54
2023/05/07 01:58:48;;;;;;;18.37;12.13;;;8.30;99.90;;;;;;5233390;28;20972;-52
2023/05/07 02:01:18;;;;;;;21.20;12.03;;;8.30;99.90;;;;;;5204640;28;20242;-53
2023/05/07 02:03:49;;;;;;;16.97;12.43;;;8.30;99.90;;;;;;5217693;28;20485;-51
2023/05/07 02:06:20;;;;;;;15.87;11.13;;;8.30;99.90;;;;;;5205547;28;20214;-51
2023/05/07 02:08:51;;;;;;;14.87;10.93;;;8.30;99.90;;;;;;5206550;28;20199;-50
2023/05/07 02:11:22;;;;;;;12.20;10.70;;;8.30;99.90;;;;;;5203433;28;20469;-51
2023/05/07 02:13:53;;;;;;;13.73;10.97;;;8.30;99.90;;;;;;5200789;28;20246;-54
2023/05/07 02:16:24;;;;;;;16.10;11.07;;;8.30;99.90;;;;;;5202944;28;20197;-53
2023/05/07 02:18:54;;;;;;;19.87;12.60;;;8.40;99.90;;;;;;5203744;28;20639;-52
2023/05/07 02:21:25;;;;;;;14.13;11.03;;;8.30;99.90;;;;;;5203346;28;20218;-51
2023/05/07 02:23:56;;;;;;;16.63;11.77;;;8.40;99.90;;;;;;5206887;28;20726;-51
2023/05/07 02:26:26;;;;;;;14.90;11.07;;;8.30;99.90;;;;;;5207543;28;20283;-51
2023/05/07 02:28:57;;;;;;;14.57;11.70;;;8.30;99.90;;;;;;5239271;28;20196;-51
2023/05/07 02:31:27;;;;;;;13.93;11.10;;;8.30;99.90;;;;;;5204592;28;20414;-54
2023/05/07 02:33:58;;;;;;;20.00;11.83;;;8.30;99.90;;;;;;5200822;28;20246;-51
2023/05/07 02:36:29;;;;;;;14.00;12.20;;;8.30;99.90;;;;;;5203441;28;20603;-52
2023/05/07 02:39:00;;;;;;;12.80;11.23;;;8.20;99.90;;;;;;5205218;28;20203;-52
2023/05/07 02:41:30;;;;;;;17.70;11.53;;;8.30;99.90;;;;;;5210532;28;20188;-49
2023/05/07 02:44:01;;;;;;;15.50;11.50;;;8.30;99.90;;;;;;5201872;28;20493;-50
2023/05/07 02:46:31;;;;;;;14.00;12.03;;;8.30;99.90;;;;;;5209112;28;20249;-50
2023/05/07 02:49:02;;;;;;;13.20;11.77;;;8.30;99.90;;;;;;5232428;22;20671;-52
2023/05/07 02:51:33;;;;;;;12.67;11.40;;;8.30;99.90;;;;;;5219616;28;20256;-52
2023/05/07 02:54:04;;;;;;;14.50;10.37;;;8.30;99.90;;;;;;5219977;28;20211;-52
2023/05/07 02:56:35;;;;;;;14.77;11.07;;;8.30;99.90;;;;;;5223780;28;20175;-52
2023/05/07 02:59:05;;;;;;;14.90;11.43;;;8.30;99.90;;;;;;5221095;28;20433;-53
2023/05/07 03:01:36;;;;;;;12.63;9.90;;;8.30;99.90;;;;;;5221591;28;20218;-53
2023/05/07 03:04:07;;;;;;;12.67;9.40;;;8.30;99.90;;;;;;5221371;28;20669;-51
2023/05/07 03:06:37;;;;;;;10.90;9.80;;;8.30;99.90;;;;;;5220146;28;20178;-53
2023/05/07 03:09:08;;;;;;;11.77;9.40;;;8.30;99.90;;;;;;5224558;28;20179;-53
2023/05/07 03:11:39;;;;;;;20.13;10.70;;;8.30;99.90;;;;;;5219875;28;20186;-51
2023/05/07 03:14:09;;;;;;;12.37;10.20;;;8.40;99.90;;;;;;5220568;28;20264;-52
2023/05/07 03:16:40;;;;;;;11.37;9.50;;;8.40;99.90;;;;;;5221033;28;20267;-51
2023/05/07 03:19:10;;;;;;;11.93;9.07;;;8.40;99.90;;;;;;5224114;28;20257;-53
2023/05/07 03:21:41;;;;;;;11.10;9.63;;;8.30;99.90;;;;;;5222520;28;20175;-52
2023/05/07 03:24:12;;;;;;;17.27;10.03;;;8.30;99.90;;;;;;5222938;28;20191;-52
2023/05/07 03:26:42;;;;;;;17.90;10.00;;;8.30;99.90;;;;;;5220731;28;20218;-52
2023/05/07 03:29:13;;;;;;;12.10;9.07;;;8.30;99.90;;;;;;5216031;28;20315;-52
2023/05/07 03:31:44;;;;;;;13.00;9.93;;;8.30;99.90;;;;;;5221537;28;20199;-51
2023/05/07 03:34:16;;;;;;;15.17;9.87;;;8.20;99.90;;;;;;5220254;28;20214;-52
2023/05/07 03:36:48;;;;;;;11.77;9.27;;;8.30;99.90;;;;;;5218506;28;20440;-55
2023/05/07 03:39:19;;;;;;;12.13;9.63;;;8.30;99.90;;;;;;5234476;28;20449;-52
2023/05/07 03:41:50;;;;;;;14.20;9.30;;;8.30;99.90;;;;;;5222700;28;20437;-52
2023/05/07 03:44:20;;;;;;;13.10;10.17;;;8.20;99.90;;;;;;5221389;28;20536;-52
2023/05/07 03:46:51;;;;;;;12.00;9.57;;;8.20;99.90;;;;;;5223564;28;20179;-53
2023/05/07 03:49:22;;;;;;;12.70;9.83;;;8.20;99.90;;;;;;5222661;28;20214;-52
2023/05/07 03:51:52;;;;;;;10.97;9.37;;;8.20;99.90;;;;;;5219251;28;20677;-55
2023/05/07 03:54:23;;;;;;;14.73;10.10;;;8.20;99.90;;;;;;5220792;28;20210;-54
2023/05/07 03:56:53;;;;;;;10.47;9.00;;;8.20;99.90;;;;;;5216296;28;20188;-53
2023/05/07 03:59:24;;;;;;;11.07;9.63;;;8.20;99.90;;;;;;5218225;28;20208;-52
2023/05/07 04:01:55;;;;;;;10.97;9.63;;;8.10;99.90;;;;;;5219147;28;20201;-54
2023/05/07 04:04:25;;;;;;;11.30;8.00;;;8.10;99.90;;;;;;5219988;28;20281;-53
2023/05/07 04:06:56;;;;;;;10.90;9.43;;;8.20;99.90;;;;;;5219531;28;20308;-52
2023/05/07 04:09:27;;;;;;;13.47;8.80;;;8.10;99.90;;;;;;5216582;28;20202;-52
2023/05/07 04:11:57;;;;;;;13.27;9.10;;;8.10;99.90;;;;;;5218508;28;20266;-52
2023/05/07 04:14:28;;;;;;;10.90;8.87;;;8.10;99.90;;;;;;5218116;28;20215;-53
2023/05/07 04:16:59;;;;;;;9.70;8.70;;;8.10;99.90;;;;;;5220854;28;20189;-52
2023/05/07 04:19:30;;;;;;;10.37;8.60;;;8.10;99.90;;;;;;5219525;28;20281;-52
2023/05/07 04:22:01;;;;;;;11.30;8.93;;;8.20;99.90;;;;;;5223657;28;21121;-53
2023/05/07 04:24:35;;;;;;;13.70;9.53;;;8.20;99.90;;;;;;5217923;28;20468;-55
2023/05/07 04:27:06;;;;;;;18.83;8.30;;;8.20;99.90;;;;;;5222040;28;20195;-54
2023/05/07 04:29:36;;;;;;;9.50;8.50;;;8.20;99.90;;;;;;5219703;28;20548;-53
2023/05/07 04:32:08;;;;;;;13.43;9.37;;;8.30;99.90;;;;;;5220554;28;20949;-51
2023/05/07 04:34:39;;;;;;;8.30;7.50;;;8.30;99.90;;;;;;5222931;28;20781;-52
2023/05/07 04:37:10;;;;;;;10.87;8.40;;;8.30;99.90;;;;;;5220088;28;20438;-52
2023/05/07 04:39:40;;;;;;;8.60;7.73;;;8.30;99.90;;;;;;5220249;28;20194;-54
2023/05/07 04:42:15;;;;;;;10.90;8.03;;;8.30;99.90;;;;;;5219936;28;20222;-53
2023/05/07 04:44:46;;;;;;;9.10;8.20;;;8.30;99.90;;;;;;5222438;28;20183;-51
2023/05/07 04:47:16;;;;;;;10.80;7.90;;;8.40;99.90;;;;;;5220127;28;20452;-50
2023/05/07 04:49:47;;;;;;;8.70;7.97;;;8.40;99.90;;;;;;5223028;28;20215;-54
2023/05/07 04:52:17;;;;;;;9.80;7.83;;;8.40;99.90;;;;;;5219208;28;20190;-54
2023/05/07 04:54:48;;;;;;;9.77;7.07;;;8.40;99.90;;;;;;5219875;28;20234;-52
2023/05/07 04:57:19;;;;;;;18.40;8.43;;;8.40;99.90;;;;;;5223636;28;20183;-53
2023/05/07 04:59:49;;;;;;;9.77;7.97;;;8.40;99.90;;;;;;5220617;28;20690;-56
2023/05/07 05:02:20;;;;;;;8.87;6.97;;;8.50;99.90;;;;;;5224549;28;20197;-52
2023/05/07 05:04:51;;;;;;;25.53;7.10;;;8.50;99.90;;;;;;5221496;28;20191;-52
2023/05/07 05:07:21;;;;;;;8.90;7.70;;;8.50;99.90;;;;;;5222113;28;20197;-54
2023/05/07 05:09:52;;;;;;;7.80;7.10;;;8.50;99.90;;;;;;5222773;28;20287;-55
2023/05/07 05:12:22;;;;;;;15.47;8.03;;;8.50;99.90;;;;;;5221410;28;20244;-52
2023/05/07 05:14:53;;;;;;;8.27;7.47;;;8.60;99.90;;;;;;5221953;28;20218;-53
2023/05/07 05:17:24;;;;;;;8.73;6.43;;;8.90;99.90;;;;;;5225749;28;20717;-52
2023/05/07 05:19:54;;;;;;;12.73;7.53;;;9.30;99.90;;;;;;5223910;28;20203;-51
2023/05/07 05:22:25;;;;;;;8.23;6.40;;;9.50;99.90;;;;;;5221004;28;20651;-51
2023/05/07 05:24:56;;;;;;;8.27;7.10;;;9.50;99.90;;;;;;5217791;28;20195;-52
2023/05/07 05:27:26;;;;;;;10.07;6.27;;;9.50;99.90;;;;;;5222101;28;20200;-52
2023/05/07 05:29:57;;;;;;;8.27;7.47;;;9.50;99.90;;;;;;5221556;28;20698;-50
2023/05/07 05:32:28;;;;;;;12.43;8.50;;;9.30;99.90;;;;;;5222319;28;20551;-54
2023/05/07 05:34:58;;;;;;;6.53;5.83;;;9.10;99.90;;;;;;5223592;28;20207;-53
2023/05/07 05:37:30;;;;;;;8.77;7.63;;;9.10;99.90;;;;;;5223353;28;20544;-53
2023/05/07 05:40:00;;;;;;;7.90;6.93;;;9.30;99.90;;;;;;5221799;28;20305;-52
2023/05/07 05:42:31;;;;;;;8.10;6.10;;;9.40;99.90;;;;;;5221729;28;20881;-53
2023/05/07 05:45:02;;;;;;;15.77;7.53;;;9.40;99.90;;;;;;5221099;28;20999;-53
2023/05/07 05:47:32;;;;;;;8.00;7.27;;;9.60;99.90;;;;;;5215900;28;20191;-53
2023/05/07 05:50:04;;;;;;;8.23;7.17;;;9.60;99.90;;;;;;5219086;28;20627;-53
2023/05/07 05:52:35;;;;;;;7.73;6.77;;;9.60;99.90;;;;;;5219111;28;20655;-54
2023/05/07 05:55:06;;;;;;;8.03;7.30;;;9.60;99.90;;;;;;5219860;28;20480;-52
2023/05/07 05:57:37;;;;;;;8.00;6.17;;;9.90;99.90;;;;;;5217939;28;20333;-55
2023/05/07 06:00:08;;;;;;;9.40;6.30;;;11.10;99.90;;;;;;5221726;28;20544;-53
2023/05/07 06:02:39;;;;;;;9.33;6.93;;;11.10;99.90;;;;;;5217955;28;20249;-51
2023/05/07 06:05:09;;;;;;;6.33;5.73;;;11.30;99.90;;;;;;5226687;28;20464;-54
2023/05/07 06:07:40;;;;;;;7.33;6.60;;;11.40;99.90;;;;;;5222288;28;20330;-53
2023/05/07 06:10:11;;;;;;;6.80;6.10;;;11.20;99.90;;;;;;5221319;28;20225;-52
2023/05/07 06:12:41;;;;;;;15.83;7.30;;;11.10;99.90;;;;;;5225132;28;20198;-53
2023/05/07 06:15:12;;;;;;;13.03;7.37;;;11.10;99.90;;;;;;5220585;28;20554;-52
2023/05/07 06:17:43;;;;;;;11.50;7.90;;;10.60;99.90;;;;;;5225724;28;20180;-52
2023/05/07 06:20:13;;;;;;;9.27;6.93;;;10.40;99.90;;;;;;5222103;28;20203;-52
2023/05/07 06:22:44;;;;;;;7.77;6.70;;;10.40;99.90;;;;;;5218367;28;20179;-52
2023/05/07 06:25:14;;;;;;;7.57;6.10;;;10.40;99.90;;;;;;5223934;28;20190;-52
2023/05/07 06:27:45;;;;;;;7.87;6.67;;;10.10;99.90;;;;;;5222136;28;20191;-53
2023/05/07 06:30:16;;;;;;;13.30;6.23;;;10.10;99.90;;;;;;5222627;28;20203;-52
2023/05/07 06:32:46;;;;;;;7.50;6.70;;;10.20;99.90;;;;;;5220246;28;20218;-54
2023/05/07 06:35:17;;;;;;;8.80;7.27;;;10.20;99.90;;;;;;5226531;28;20695;-54
2023/05/07 06:37:48;;;;;;;10.70;6.40;;;10.10;99.90;;;;;;5207849;28;20183;-51
2023/05/07 06:40:18;;;;;;;8.80;6.00;;;10.20;99.90;;;;;;5221163;28;20552;-53
2023/05/07 06:42:49;;;;;;;7.13;6.20;;;10.30;99.90;;;;;;5221129;28;20535;-55
2023/05/07 06:45:20;;;;;;;9.70;6.50;;;10.30;99.90;;;;;;5218760;28;20643;-53
2023/05/07 06:47:50;;;;;;;6.40;5.80;;;10.30;99.90;;;;;;5222949;28;20187;-54
2023/05/07 06:50:21;;;;;;;5.40;5.00;;;10.40;99.90;;;;;;5223332;28;20575;-53
2023/05/07 06:52:51;;;;;;;9.60;6.10;;;10.50;99.90;;;;;;5219903;28;20500;-52
2023/05/07 06:55:22;;;;;;;10.03;5.40;;;10.70;99.90;;;;;;5221963;28;20230;-53
2023/05/07 06:57:53;;;;;;;5.93;5.20;;;11.50;99.90;;;;;;5220227;28;20171;-54
2023/05/07 07:00:23;;;;;;;6.17;4.43;;;13.10;99.90;;;;;;5220876;28;20195;-55
2023/05/07 07:02:55;;;;;;;5.00;4.60;;;14.50;99.90;;;;;;5221492;28;20631;-53
2023/05/07 07:05:25;;;;;;;5.13;4.73;;;14.90;99.60;;;;;;5221833;28;20298;-52
2023/05/07 07:07:56;;;;;;;11.30;5.77;;;13.90;99.90;;;;;;5221843;28;21664;-53
2023/05/07 07:10:27;;;;;;;5.40;4.40;;;14.90;99.90;;;;;;5220796;28;20276;-53
2023/05/07 07:12:57;;;;;;;6.83;4.60;;;15.10;99.00;;;;;;5221347;28;20285;-53
2023/05/07 07:15:28;;;;;;;4.10;3.73;;;16.20;97.70;;;;;;5218813;28;20206;-54
2023/05/07 07:17:59;;;;;;;4.60;4.30;;;17.00;85.20;;;;;;5220069;28;20187;-53
2023/05/07 07:20:29;;;;;;;10.33;5.40;;;15.60;90.20;;;;;;5221998;28;20253;-55
2023/05/07 07:23:00;;;;;;;3.97;3.67;;;15.10;93.30;;;;;;5220593;28;20186;-55
2023/05/07 07:25:31;;;;;;;5.13;3.80;;;15.70;91.20;;;;;;5208401;28;21641;-53
2023/05/07 07:28:01;;;;;;;5.63;3.43;;;16.40;86.20;;;;;;5218968;28;20313;-55
2023/05/07 07:30:32;;;;;;;3.97;3.60;;;16.90;80.40;;;;;;5224071;28;20202;-54
2023/05/07 07:33:03;;;;;;;4.00;3.30;;;16.40;80.30;;;;;;5223446;28;20202;-53
2023/05/07 07:35:34;;;;;;;6.10;3.53;;;16.00;82.60;;;;;;5219216;28;20289;-55
2023/05/07 07:38:04;;;;;;;5.20;4.03;;;15.80;84.60;;;;;;5221210;28;20179;-55
2023/05/07 07:40:35;;;;;;;3.37;3.17;;;17.40;79.10;;;;;;5222613;28;20211;-53
2023/05/07 07:43:06;;;;;;;3.83;3.53;;;18.70;70.70;;;;;;5221587;28;20262;-55
2023/05/07 07:45:36;;;;;;;5.00;3.60;;;20.20;60.90;;;;;;5224285;28;20187;-53
2023/05/07 07:48:07;;;;;;;3.57;3.33;;;21.10;54.90;;;;;;5219031;28;20675;-51
2023/05/07 07:50:38;;;;;;;3.47;3.17;;;21.10;52.00;;;;;;5217654;28;20235;-54
2023/05/07 07:53:09;;;;;;;6.37;3.40;;;20.70;51.60;;;;;;5210350;28;20403;-55
2023/05/07 07:55:40;;;;;;;3.10;2.90;;;20.10;51.20;;;;;;5231968;28;20553;-57
2023/05/07 07:58:10;;;;;;;2.63;2.47;;;20.10;51.90;;;;;;5204324;28;20569;-56
2023/05/07 08:00:41;;;;;;;3.00;2.73;;;20.00;51.20;;;;;;5218703;28;20452;-53
2023/05/07 08:03:12;;;;;;;3.37;3.07;;;20.60;50.70;;;;;;5220660;28;20182;-54
2023/05/07 08:05:43;;;;;;;2.80;2.60;;;21.30;48.30;;;;;;5221305;28;20183;-57
2023/05/07 08:08:14;;;;;;;2.60;2.40;;;21.50;47.10;;;;;;5227503;28;20805;-57
2023/05/07 08:10:44;;;;;;;2.53;2.43;;;20.50;49.10;;;;;;5220920;28;20203;-53
2023/05/07 08:13:15;;;;;;;2.40;2.20;;;19.90;49.40;;;;;;5223165;28;20222;-53
2023/05/07 08:15:46;;;;;;;3.67;3.37;;;19.70;49.50;;;;;;5222846;28;20210;-53
2023/05/07 08:18:17;;;;;;;2.93;2.50;;;18.90;51.70;;;;;;5217923;28;20178;-53
2023/05/07 08:20:47;;;;;;;3.23;2.93;;;17.70;53.50;;;;;;5220893;28;20230;-57
2023/05/07 08:23:18;;;;;;;6.33;2.60;;;18.60;54.10;;;;;;5218138;28;20191;-53
2023/05/07 08:25:53;;;;;;;2.80;2.63;;;18.30;52.60;;;;;;5221352;28;20645;-55
2023/05/07 08:28:24;;;;;;;2.50;2.30;;;17.60;54.30;;;;;;5220927;28;20274;-53
2023/05/07 08:30:56;;;;;;;3.30;3.00;;;17.10;56.60;;;;;;5220524;28;20507;-58
2023/05/07 08:33:27;;;;;;;2.20;1.97;;;16.30;57.80;;;;;;5224855;28;20801;-53
2023/05/07 08:35:58;;;;;;;3.10;2.80;;;15.50;59.70;;;;;;5220109;28;20433;-54
2023/05/07 08:38:28;;;;;;;2.43;2.23;;;15.50;61.40;;;;;;5220888;28;20436;-54
2023/05/07 08:40:59;;;;;;;2.57;2.30;;;15.20;63.60;;;;;;5219765;28;20226;-57
2023/05/07 08:43:33;;;;;;;2.93;2.70;;;15.40;64.40;;;;;;5226156;28;20277;-55
2023/05/07 08:46:05;;;;;;;3.03;2.30;;;15.80;65.50;;;;;;5221664;28;20175;-54
2023/05/07 08:48:36;;;;;;;10.90;2.67;;;16.10;63.70;;;;;;5223146;28;20464;-56
2023/05/07 08:51:08;;;;;;;2.30;2.20;;;15.80;64.50;;;;;;5208376;28;20755;-55
2023/05/07 08:53:41;;;;;;;3.13;2.90;;;15.30;65.10;;;;;;5222104;28;21028;-54
2023/05/07 08:56:13;;;;;;;3.47;2.30;;;14.80;68.30;;;;;;5224494;28;20433;-54
2023/05/07 08:58:44;;;;;;;3.10;2.90;;;14.10;72.60;;;;;;5223358;28;20512;-54
2023/05/07 09:01:16;;;;;;;3.23;3.00;;;14.30;76.00;;;;;;5222071;28;20466;-54
2023/05/07 09:03:47;;;;;;;3.10;2.90;;;14.30;78.20;;;;;;5229726;28;20437;-55
2023/05/07 09:06:18;;;;;;;2.87;2.67;;;14.20;78.20;;;;;;5222962;28;20853;-55
2023/05/07 09:08:54;;;;;;;2.90;2.80;;;13.90;80.60;;;;;;5226321;28;20441;-54
2023/05/07 09:11:25;;;;;;;2.60;2.10;;;13.60;84.50;;;;;;5238309;28;20629;-56
2023/05/07 09:13:57;;;;;;;6.40;3.13;;;13.50;86.40;;;;;;5221519;28;20477;-54
2023/05/07 09:16:30;;;;;;;4.23;2.80;;;13.40;89.10;;;;;;5225318;28;20635;-53
2023/05/07 09:19:00;;;;;;;5.73;2.93;;;13.60;91.00;;;;;;5219445;28;20441;-54
2023/05/07 09:21:31;;;;;;;2.83;2.50;;;13.80;90.90;;;;;;5222272;28;20433;-54
2023/05/07 09:24:02;;;;;;;3.00;2.80;;;13.90;89.80;;;;;;5220215;28;20183;-53
2023/05/07 09:26:34;;;;;;;3.30;2.73;;;14.10;90.00;;;;;;5222002;28;20213;-53
2023/05/07 09:29:05;;;;;;;4.93;2.50;;;14.30;87.30;;;;;;5213796;28;20640;-53
2023/05/07 09:31:38;;;;;;;4.40;2.13;;;14.00;89.60;;;;;;5219853;28;20453;-55
2023/05/07 09:34:09;;;;;;;3.60;2.30;;;13.60;90.80;;;;;;5222560;28;20278;-55
2023/05/07 09:36:40;;;;;;;2.77;2.57;;;13.30;91.90;;;;;;5226082;28;21021;-54
2023/05/07 09:39:10;;;;;;;2.43;2.33;;;13.00;93.00;;;;;;5224431;28;20662;-53
2023/05/07 09:41:45;;;;;;;2.87;2.47;;;12.90;94.10;;;;;;5226429;28;20209;-53
2023/05/07 09:44:16;;;;;;;3.90;2.77;;;13.00;96.00;;;;;;5226008;28;20217;-55
2023/05/07 09:46:52;;;;;;;2.97;2.50;;;13.20;94.70;;;;;;5221596;28;20798;-55
2023/05/07 09:49:24;;;;;;;2.70;1.93;;;13.40;94.80;;;;;;5223041;28;20708;-53
2023/05/07 09:51:56;;;;;;;2.20;2.10;;;13.50;93.20;;;;;;5220597;28;20445;-54
2023/05/07 09:54:30;;;;;;;2.37;2.27;;;13.40;93.70;;;;;;5224599;28;20457;-53
2023/05/07 09:57:02;;;;;;;2.13;2.10;;;13.30;93.30;;;;;;5226209;28;20802;-56
2023/05/07 09:59:36;;;;;;;2.20;2.10;;;13.20;93.50;;;;;;5223374;28;20475;-55
2023/05/07 10:02:10;;;;;;;6.23;2.40;;;13.20;94.50;;;;;;5224950;28;20591;-55
2023/05/07 10:04:41;;;;;;;8.77;1.70;;;13.30;94.30;;;;;;5224904;28;20477;-54
2023/05/07 10:07:14;;;;;;;3.07;1.80;;;13.60;93.70;;;;;;5225449;28;20964;-56
2023/05/07 10:09:46;;;;;;;3.17;1.63;;;13.80;92.60;;;;;;5225073;28;20465;-55
2023/05/07 10:12:19;;;;;;;1.60;1.50;;;13.80;92.00;;;;;;5225068;28;20437;-55
2023/05/07 10:14:52;;;;;;;1.40;1.40;;;14.10;91.10;;;;;;5225595;28;20461;-55
2023/05/07 10:17:23;;;;;;;1.97;1.80;;;14.20;90.50;;;;;;5224690;28;20452;-55
2023/05/07 10:19:54;;;;;;;1.40;1.40;;;14.40;89.80;;;;;;5221029;28;20453;-55
2023/05/07 10:22:27;;;;;;;1.80;1.70;;;14.50;88.60;;;;;;5223323;28;20187;-55
2023/05/07 10:25:02;;;;;;;1.77;1.67;;;14.70;88.60;;;;;;5222908;28;20445;-54
2023/05/07 10:27:33;;;;;;;2.30;1.60;;;14.50;85.10;;;;;;5223092;28;20433;-55
2023/05/07 10:30:31;;;;;;;1.50;1.50;;;14.60;86.40;;;;;;5224478;28;20620;-58
2023/05/07 10:33:07;;;;;;;3.50;1.80;;;14.90;85.70;;;;;;5222395;28;20445;-55
2023/05/07 10:35:41;;;;;;;1.30;1.30;;;15.20;83.60;;;;;;5223853;28;20472;-56
2023/05/07 10:38:12;;;;;;;1.57;1.47;;;15.50;81.30;;;;;;5224887;28;20444;-57
2023/05/07 10:40:43;;;;;;;1.73;1.63;;;15.70;79.30;;;;;;5219138;28;20442;-56
2023/05/07 10:43:14;;;;;;;1.90;1.53;;;15.50;76.80;;;;;;5218571;28;20206;-56
2023/05/07 10:46:15;;;;;;;1.60;1.50;;;15.20;77.80;;;;;;5222369;28;20446;-56
2023/05/07 10:49:01;;;;;;;2.60;1.40;;;15.00;80.20;;;;;;5221767;28;20185;-56
2023/05/07 10:51:33;;;;;;;1.50;1.50;;;14.90;80.50;;;;;;5221795;28;20434;-55
2023/05/07 10:54:10;;;;;;;1.50;1.40;;;14.60;82.20;;;;;;5224477;28;20544;-56
2023/05/07 10:56:43;;;;;;;2.60;2.40;;;14.60;81.70;;;;;;5224528;28;20877;-54
2023/05/07 10:59:23;;;;;;;3.30;2.00;;;14.60;83.70;;;;;;5223074;28;20454;-57
2023/05/07 11:02:03;;;;;;;2.37;1.53;;;15.10;79.60;;;;;;5222558;28;20486;-56
2023/05/07 11:04:38;;;;;;;1.40;1.30;;;15.60;78.30;;;;;;5220273;28;20444;-53
2023/05/07 11:07:09;;;;;;;2.13;1.90;;;15.90;73.50;;;;;;5223901;28;20428;-55
2023/05/07 11:09:55;;;;;;;1.00;1.00;;;15.40;73.80;;;;;;5220431;28;20511;-55
2023/05/07 11:12:38;;;;;;;2.33;1.67;;;15.20;75.10;;;;;;5219597;28;20282;-56
2023/05/07 11:15:15;;;;;;;1.43;1.33;;;15.10;75.90;;;;;;5224239;28;20467;-54
2023/05/07 11:17:59;;;;;;;1.70;1.60;;;14.80;74.90;;;;;;5222247;28;20932;-56
2023/05/07 11:20:51;;;;;;;6.40;1.70;;;14.50;77.60;;;;;;5221125;28;20468;-55
2023/05/07 11:23:34;;;;;;;1.37;1.33;;;14.50;78.20;;;;;;5215530;28;22254;-56
2023/05/07 11:26:07;;;;;;;2.30;2.10;;;14.30;79.90;;;;;;5223652;28;20452;-55
2023/05/07 11:28:40;;;;;;;2.40;0.90;;;14.40;79.50;;;;;;5223579;28;20465;-56
2023/05/07 11:31:10;;;;;;;1.73;1.60;;;14.30;79.30;;;;;;5222209;28;20465;-54
2023/05/07 11:33:44;;;;;;;2.40;1.23;;;14.40;78.40;;;;;;5223230;28;20916;-56
2023/05/07 11:36:15;;;;;;;1.43;1.43;;;14.50;76.40;;;;;;5223039;28;20227;-55
2023/05/07 11:38:46;;;;;;;1.30;1.30;;;14.60;77.60;;;;;;5239438;28;20483;-56
2023/05/07 11:41:18;;;;;;;1.93;1.83;;;14.90;77.10;;;;;;5220793;28;20872;-56
2023/05/07 11:43:59;;;;;;;1.27;1.27;;;15.00;74.40;;;;;;5222184;28;20186;-54
2023/05/07 11:46:30;;;;;;;1.53;1.43;;;15.20;74.50;;;;;;5222478;28;20448;-54
2023/05/07 11:49:01;;;;;;;1.40;1.40;;;15.60;73.90;;;;;;5223301;28;20441;-54
2023/05/07 11:51:31;;;;;;;2.30;1.63;;;16.00;70.80;;;;;;5221743;28;20278;-53
2023/05/07 11:54:08;;;;;;;5.13;1.70;;;16.10;70.00;;;;;;5222871;28;20249;-56
2023/05/07 11:56:39;;;;;;;1.67;1.57;;;16.40;69.50;;;;;;5221972;28;20252;-54
2023/05/07 11:59:09;;;;;;;2.30;1.73;;;16.20;67.40;;;;;;5221431;28;20429;-54
2023/05/07 12:01:40;;;;;;;1.40;1.30;;;16.00;68.20;;;;;;5222864;28;20283;-56
2023/05/07 12:04:11;;;;;;;1.70;1.60;;;16.00;68.30;;;;;;5221671;28;20205;-54
2023/05/07 12:06:41;;;;;;;1.33;1.33;;;16.10;67.80;;;;;;5222737;28;20218;-55
2023/05/07 12:09:12;;;;;;;1.03;1.03;;;15.50;66.70;;;;;;5220439;28;20187;-56
2023/05/07 12:11:46;;;;;;;1.40;1.30;;;15.30;68.50;;;;;;5220763;28;20274;-54
2023/05/07 12:14:16;;;;;;;1.43;1.33;;;15.50;69.60;;;;;;5218073;28;20275;-56
2023/05/07 12:16:48;;;;;;;3.17;1.57;;;15.60;68.40;;;;;;5221610;28;21140;-56
2023/05/07 12:19:19;;;;;;;1.40;1.30;;;15.50;68.90;;;;;;5221770;28;20211;-53
2023/05/07 12:21:50;;;;;;;1.70;1.60;;;15.30;67.80;;;;;;5221493;28;20826;-53
2023/05/07 12:24:21;;;;;;;5.10;1.73;;;15.10;69.10;;;;;;5225550;28;20520;-56
2023/05/07 12:26:52;;;;;;;1.50;1.50;;;15.30;71.30;;;;;;5221468;28;20698;-55
2023/05/07 12:29:23;;;;;;;1.43;1.43;;;15.30;68.80;;;;;;5220931;28;20305;-55
2023/05/07 12:31:54;;;;;;;1.63;1.53;;;15.20;68.80;;;;;;5218363;28;20528;-53
2023/05/07 12:34:25;;;;;;;1.50;1.50;;;15.40;70.10;;;;;;5219310;28;20276;-55
2023/05/07 12:36:55;;;;;;;1.57;1.07;;;15.50;68.30;;;;;;5219963;28;20195;-55
2023/05/07 12:39:26;;;;;;;1.10;1.00;;;15.60;67.70;;;;;;5221039;28;20717;-57
2023/05/07 12:41:58;;;;;;;1.70;1.60;;;15.50;67.10;;;;;;5213547;28;20182;-55
2023/05/07 12:44:30;;;;;;;1.80;1.60;;;15.20;67.00;;;;;;5219426;28;20199;-54
2023/05/07 12:47:02;;;;;;;1.80;1.63;;;15.00;68.50;;;;;;5222818;28;20438;-55
2023/05/07 12:49:37;;;;;;;1.27;1.17;;;14.90;69.50;;;;;;5219897;28;20484;-54
2023/05/07 12:52:08;;;;;;;1.27;1.20;;;14.90;68.90;;;;;;5219348;28;20442;-54
2023/05/07 12:54:39;;;;;;;3.17;1.53;;;15.10;68.70;;;;;;5222164;28;20463;-56
2023/05/07 12:57:10;;;;;;;1.43;1.17;;;15.40;68.50;;;;;;5219582;28;20260;-55
2023/05/07 12:59:42;;;;;;;1.30;1.30;;;15.50;66.30;;;;;;5218168;28;20218;-55
2023/05/07 13:02:12;;;;;;;1.27;1.27;;;15.60;67.10;;;;;;5219663;28;20437;-54
2023/05/07 13:04:43;;;;;;;1.60;1.23;;;15.50;65.60;;;;;;5210916;28;20458;-57
2023/05/07 13:07:13;;;;;;;1.90;1.27;;;15.50;67.40;;;;;;5231005;28;20195;-55
2023/05/07 13:09:44;;;;;;;1.33;1.27;;;15.60;66.80;;;;;;5223496;28;20229;-54